Weather at Turning Stone Resort & Casino Heliport

Public forecast

Using degrees Fahrenheit for public forecast. Weather courtesy of forecast.io.

Closest aviation weather report (METAR) to Turning Stone Resort & Casino Heliport

Closest report is Griffiss International Airport, 11.0 nm (20.4 km) NE. Retrieved 2020/11/23 15:29 UTC (20 minutes ago):

KRME 231529Z 29018G25KT 10SM SCT016 OVC022 03/M01 A3003 RMK AO2 T00281011

Closest aviation forecast (TAF) to Turning Stone Resort & Casino Heliport

Closest forecast is Griffiss International Airport, 11.0 nm (20.4 km) NE. Retrieved 2020/11/23 12:27 UTC (3 hours ago):

TAF KRME 231125Z 2312/2412 28011G23KT 6SM -RA BR OVC015 FM231300 29013G22KT P6SM OVC018 FM231900 29013G22KT P6SM BKN025 FM232300 29007KT 5SM -SHRASN BR OVC030 FM240200 30006KT P6SM BKN035